Time;durP1;ratioP1;P1;durP2;ratioP2;P2;SDS_P1;SDS_P2;PMS_P1;PMS_P2;Temp;Humidity;BMP_temperature;BMP_pressure;BME280_temperature;BME280_humidity;BME280_pressure;Samples;Min_cycle;Max_cycle;Signal;HPM_P1;HPM_P2
2022/05/09 00:00:15;;;;;;;;;17.00;11.67;;;;;;;;4928661;28;45979;-79
2022/05/09 00:02:46;;;;;;;;;14.67;12.67;;;;;;;;4918652;28;45384;-80
2022/05/09 00:05:15;;;;;;;;;8.00;7.67;;;;;;;;4926911;28;45515;-77
2022/05/09 00:07:41;;;;;;;;;13.33;11.00;;;;;;;;4934353;28;45740;-79
2022/05/09 00:10:07;;;;;;;;;13.67;12.00;;;;;;;;4905574;28;47358;-80
2022/05/09 00:12:33;;;;;;;;;12.67;10.67;;;;;;;;4946070;28;45291;-79
2022/05/09 00:14:58;;;;;;;;;10.67;9.67;;;;;;;;4927913;28;45664;-77
2022/05/09 00:17:25;;;;;;;;;10.00;7.00;;;;;;;;4923105;28;45469;-79
2022/05/09 00:19:50;;;;;;;;;13.67;9.67;;;;;;;;4929295;28;45772;-80
2022/05/09 00:22:15;;;;;;;;;10.33;9.00;;;;;;;;4898215;28;45417;-83
2022/05/09 00:24:41;;;;;;;;;6.00;6.00;;;;;;;;4911003;28;45503;-79
2022/05/09 00:27:06;;;;;;;;;10.00;9.33;;;;;;;;4917547;28;45875;-79
2022/05/09 00:29:31;;;;;;;;;11.00;8.67;;;;;;;;4928770;28;46218;-78
2022/05/09 00:31:57;;;;;;;;;7.33;7.33;;;;;;;;4930178;28;45556;-79
2022/05/09 00:34:23;;;;;;;;;6.67;6.67;;;;;;;;4924435;28;45410;-80
2022/05/09 00:36:49;;;;;;;;;6.33;4.00;;;;;;;;4909901;28;45900;-78
2022/05/09 00:39:15;;;;;;;;;5.33;5.00;;;;;;;;4910677;28;47848;-79
2022/05/09 00:41:42;;;;;;;;;7.00;6.33;;;;;;;;4903983;28;45921;-81
2022/05/09 00:44:27;;;;;;;;;7.67;6.67;;;;;;;;4949227;28;45704;-81
2022/05/09 00:46:54;;;;;;;;;7.67;7.67;;;;;;;;4941812;28;46021;-79
2022/05/09 00:49:19;;;;;;;;;7.67;7.67;;;;;;;;4916210;28;47054;-80
2022/05/09 00:51:55;;;;;;;;;9.67;7.00;;;;;;;;4925335;28;45422;-82
2022/05/09 00:54:21;;;;;;;;;6.33;5.67;;;;;;;;4921166;28;45519;-79
2022/05/09 00:56:49;;;;;;;;;6.67;6.67;;;;;;;;4931432;28;46123;-79
2022/05/09 00:59:19;;;;;;;;;4.67;4.67;;;;;;;;4924509;28;47516;-79
2022/05/09 01:01:46;;;;;;;;;6.33;6.33;;;;;;;;4902842;28;45709;-79
2022/05/09 01:04:12;;;;;;;;;6.33;5.00;;;;;;;;4928367;28;45463;-78
2022/05/09 01:06:38;;;;;;;;;8.00;7.00;;;;;;;;4909245;28;46067;-79
2022/05/09 01:09:04;;;;;;;;;6.67;5.00;;;;;;;;4918749;28;46054;-79
2022/05/09 01:11:31;;;;;;;;;5.67;4.67;;;;;;;;4922987;28;45729;-78
2022/05/09 01:14:19;;;;;;;;;7.67;7.67;;;;;;;;4915584;28;45807;-76
2022/05/09 01:17:00;;;;;;;;;11.67;7.67;;;;;;;;4923005;28;45818;-78
2022/05/09 01:19:47;;;;;;;;;8.00;7.67;;;;;;;;4937939;28;45623;-78
2022/05/09 01:22:29;;;;;;;;;8.33;8.33;;;;;;;;4930471;28;44793;-81
2022/05/09 01:25:03;;;;;;;;;9.67;6.67;;;;;;;;4934082;28;44745;-80
2022/05/09 01:31:15;;;;;;;;;5.33;5.33;;;;;;;;4927841;28;46053;-77
2022/05/09 01:33:42;;;;;;;;;9.00;8.00;;;;;;;;4915744;28;45677;-81
2022/05/09 01:36:15;;;;;;;;;6.67;5.00;;;;;;;;4916182;28;45374;-78
2022/05/09 01:39:00;;;;;;;;;9.33;6.00;;;;;;;;4916959;28;45933;-78
2022/05/09 01:41:26;;;;;;;;;4.67;4.67;;;;;;;;4924245;28;45523;-78
2022/05/09 01:43:55;;;;;;;;;6.33;6.33;;;;;;;;4932997;28;45340;-78
2022/05/09 01:46:29;;;;;;;;;7.67;7.67;;;;;;;;4930188;28;45768;-76
2022/05/09 01:51:40;;;;;;;;;6.33;6.33;;;;;;;;4922499;28;45866;-80
2022/05/09 01:54:05;;;;;;;;;11.67;6.33;;;;;;;;4923172;28;45386;-81
2022/05/09 01:56:33;;;;;;;;;8.00;7.67;;;;;;;;4931766;28;45757;-78
2022/05/09 01:58:58;;;;;;;;;8.67;7.67;;;;;;;;4939548;28;45567;-81
2022/05/09 02:01:39;;;;;;;;;6.67;5.67;;;;;;;;4938613;28;45267;-82
2022/05/09 02:04:05;;;;;;;;;6.33;5.00;;;;;;;;4904221;28;45919;-77
2022/05/09 02:06:30;;;;;;;;;8.67;7.67;;;;;;;;4928939;28;45568;-78
2022/05/09 02:08:56;;;;;;;;;9.00;6.67;;;;;;;;4926067;28;45714;-79
2022/05/09 02:11:21;;;;;;;;;5.00;5.00;;;;;;;;4912658;28;48120;-77
2022/05/09 02:13:46;;;;;;;;;5.67;4.33;;;;;;;;4926661;28;45453;-77
2022/05/09 02:16:12;;;;;;;;;7.33;6.33;;;;;;;;4917928;28;45955;-76
2022/05/09 02:18:38;;;;;;;;;8.00;8.00;;;;;;;;4932891;28;45900;-80
2022/05/09 02:21:03;;;;;;;;;4.00;4.00;;;;;;;;4926273;28;46540;-76
2022/05/09 02:23:28;;;;;;;;;6.67;4.33;;;;;;;;4924359;28;45759;-77
2022/05/09 02:25:54;;;;;;;;;8.67;7.33;;;;;;;;4917248;28;45439;-78
2022/05/09 02:28:21;;;;;;;;;7.33;6.67;;;;;;;;4932938;28;45788;-77
2022/05/09 02:30:47;;;;;;;;;6.33;6.33;;;;;;;;4933626;28;45686;-79
2022/05/09 02:33:12;;;;;;;;;8.00;8.00;;;;;;;;4926856;28;45715;-77
2022/05/09 02:35:38;;;;;;;;;8.67;6.33;;;;;;;;4922936;28;45448;-79
2022/05/09 02:38:04;;;;;;;;;12.33;8.67;;;;;;;;4938465;28;45711;-80
2022/05/09 02:40:29;;;;;;;;;8.33;7.00;;;;;;;;4915287;28;47266;-80
2022/05/09 02:42:58;;;;;;;;;7.33;7.00;;;;;;;;4930451;28;45501;-81
2022/05/09 02:45:24;;;;;;;;;5.00;5.00;;;;;;;;4927482;28;45300;-81
2022/05/09 02:47:50;;;;;;;;;10.00;7.33;;;;;;;;4938805;28;45684;-81
2022/05/09 02:50:16;;;;;;;;;8.00;6.67;;;;;;;;4930298;28;45682;-78
2022/05/09 02:52:42;;;;;;;;;5.00;5.00;;;;;;;;4929297;28;45843;-79
2022/05/09 02:55:08;;;;;;;;;7.33;6.67;;;;;;;;4933926;28;45583;-78
2022/05/09 02:57:34;;;;;;;;;9.67;8.33;;;;;;;;4940017;28;45697;-78
2022/05/09 03:00:00;;;;;;;;;7.33;5.67;;;;;;;;4921159;28;47245;-78
2022/05/09 03:02:25;;;;;;;;;7.00;7.00;;;;;;;;4936796;28;45841;-77
2022/05/09 03:04:51;;;;;;;;;8.00;8.00;;;;;;;;4941873;28;45469;-76
2022/05/09 03:07:20;;;;;;;;;6.67;6.67;;;;;;;;4939241;28;46914;-81
2022/05/09 03:09:49;;;;;;;;;6.33;4.00;;;;;;;;4937021;28;45255;-80
2022/05/09 03:12:18;;;;;;;;;7.00;7.00;;;;;;;;4929511;28;45421;-78
2022/05/09 03:14:44;;;;;;;;;7.33;6.00;;;;;;;;4928791;28;45559;-80
2022/05/09 03:17:09;;;;;;;;;7.67;7.00;;;;;;;;4925819;28;46341;-79
2022/05/09 03:19:34;;;;;;;;;9.67;5.67;;;;;;;;4938370;28;45557;-81
2022/05/09 03:22:03;;;;;;;;;8.67;7.33;;;;;;;;4940947;28;45500;-79
2022/05/09 03:24:29;;;;;;;;;8.67;7.67;;;;;;;;4926440;28;45823;-77
2022/05/09 03:26:55;;;;;;;;;7.00;7.00;;;;;;;;4923640;28;45910;-78
2022/05/09 03:29:20;;;;;;;;;5.00;4.00;;;;;;;;4928364;28;47640;-78
2022/05/09 03:31:51;;;;;;;;;9.67;8.33;;;;;;;;4936083;28;45490;-79
2022/05/09 03:34:21;;;;;;;;;8.33;8.33;;;;;;;;4934500;28;45764;-81
2022/05/09 03:36:54;;;;;;;;;8.00;8.00;;;;;;;;4942236;28;46536;-81
2022/05/09 03:39:19;;;;;;;;;9.00;8.00;;;;;;;;4928942;28;45829;-81
2022/05/09 03:41:47;;;;;;;;;10.00;9.33;;;;;;;;4935753;28;45714;-79
2022/05/09 03:46:58;;;;;;;;;12.33;7.00;;;;;;;;4936599;28;45540;-77
2022/05/09 03:49:27;;;;;;;;;9.67;8.00;;;;;;;;4922115;28;46875;-79
2022/05/09 03:51:52;;;;;;;;;12.67;11.67;;;;;;;;4925865;28;44876;-78
2022/05/09 03:54:17;;;;;;;;;9.00;8.00;;;;;;;;4938106;28;45509;-77
2022/05/09 03:56:43;;;;;;;;;17.33;15.00;;;;;;;;4937660;28;45987;-77
2022/05/09 03:59:08;;;;;;;;;10.33;10.33;;;;;;;;4943401;28;45435;-81
2022/05/09 04:01:34;;;;;;;;;11.00;11.00;;;;;;;;4939159;28;45567;-78
2022/05/09 04:04:00;;;;;;;;;13.33;11.67;;;;;;;;4909121;28;45580;-78
2022/05/09 04:06:25;;;;;;;;;14.00;11.33;;;;;;;;4937968;28;45416;-79
2022/05/09 04:08:50;;;;;;;;;14.33;11.33;;;;;;;;4919228;28;46886;-77
2022/05/09 04:11:16;;;;;;;;;14.33;10.00;;;;;;;;4904531;28;45588;-79
2022/05/09 04:13:42;;;;;;;;;15.00;11.67;;;;;;;;4921537;28;45844;-81
2022/05/09 04:18:52;;;;;;;;;15.00;13.33;;;;;;;;4941276;28;45424;-80
2022/05/09 04:21:17;;;;;;;;;14.33;13.67;;;;;;;;4937810;28;45464;-81
2022/05/09 04:23:43;;;;;;;;;13.33;10.67;;;;;;;;4936825;28;45358;-79
2022/05/09 04:26:08;;;;;;;;;14.00;12.00;;;;;;;;4932142;28;45752;-80
2022/05/09 04:28:34;;;;;;;;;11.00;9.67;;;;;;;;4922239;28;45406;-78
2022/05/09 04:30:59;;;;;;;;;13.00;11.33;;;;;;;;4923234;28;45852;-77
2022/05/09 04:33:25;;;;;;;;;15.00;14.67;;;;;;;;4928329;28;45735;-78
2022/05/09 04:35:58;;;;;;;;;20.33;16.33;;;;;;;;4926154;28;45804;-78
2022/05/09 04:38:24;;;;;;;;;33.33;22.00;;;;;;;;4928304;28;46236;-81
2022/05/09 04:40:51;;;;;;;;;41.00;37.67;;;;;;;;4918128;28;45696;-80
2022/05/09 04:43:21;;;;;;;;;23.67;21.00;;;;;;;;4924436;28;45862;-81
2022/05/09 04:45:50;;;;;;;;;29.33;29.33;;;;;;;;4926218;28;45455;-81
2022/05/09 04:48:16;;;;;;;;;27.67;24.00;;;;;;;;4922986;28;46773;-82
2022/05/09 04:50:42;;;;;;;;;21.67;21.00;;;;;;;;4905756;28;45408;-81
2022/05/09 04:53:07;;;;;;;;;20.33;17.00;;;;;;;;4916303;28;45733;-81
2022/05/09 04:55:32;;;;;;;;;24.33;17.33;;;;;;;;4908568;28;46966;-81
2022/05/09 04:57:59;;;;;;;;;22.67;20.33;;;;;;;;4920155;28;46079;-78
2022/05/09 05:00:25;;;;;;;;;15.33;14.33;;;;;;;;4921184;28;45842;-78
2022/05/09 05:02:51;;;;;;;;;13.00;12.00;;;;;;;;4906888;28;45996;-79
2022/05/09 05:05:17;;;;;;;;;15.67;14.33;;;;;;;;4902206;28;45476;-78
2022/05/09 05:07:43;;;;;;;;;11.67;10.00;;;;;;;;4941841;28;46592;-77
2022/05/09 05:10:08;;;;;;;;;12.33;11.67;;;;;;;;4942358;28;45554;-78
2022/05/09 05:12:34;;;;;;;;;16.33;11.33;;;;;;;;4942000;28;45728;-77
2022/05/09 05:15:00;;;;;;;;;11.33;10.00;;;;;;;;4924865;28;47385;-78
2022/05/09 05:17:25;;;;;;;;;17.00;16.00;;;;;;;;4915447;28;46912;-78
2022/05/09 05:19:51;;;;;;;;;14.00;11.33;;;;;;;;4932580;28;45465;-79
2022/05/09 05:22:19;;;;;;;;;12.00;11.00;;;;;;;;4915671;28;45737;-82
2022/05/09 05:25:05;;;;;;;;;12.67;10.33;;;;;;;;4928089;28;45881;-81
2022/05/09 05:27:33;;;;;;;;;12.00;9.33;;;;;;;;4922663;28;45510;-84
2022/05/09 05:30:09;;;;;;;;;13.00;12.00;;;;;;;;4938264;28;45572;-83
2022/05/09 05:32:39;;;;;;;;;10.67;9.67;;;;;;;;4935429;28;45685;-83
2022/05/09 05:35:07;;;;;;;;;16.00;12.67;;;;;;;;4923988;28;45699;-84
2022/05/09 05:37:33;;;;;;;;;12.33;12.00;;;;;;;;4932166;28;45599;-83
2022/05/09 05:40:00;;;;;;;;;16.00;12.33;;;;;;;;4933756;28;45524;-85
2022/05/09 05:42:25;;;;;;;;;15.00;11.67;;;;;;;;4902235;28;45365;-84
2022/05/09 05:44:51;;;;;;;;;11.33;10.67;;;;;;;;4914552;28;45590;-83
2022/05/09 05:47:17;;;;;;;;;20.67;11.33;;;;;;;;4908125;28;47817;-82
2022/05/09 05:49:43;;;;;;;;;12.00;11.00;;;;;;;;4909730;28;45564;-82
2022/05/09 05:52:09;;;;;;;;;10.00;10.00;;;;;;;;4897146;28;45536;-83
2022/05/09 05:54:36;;;;;;;;;6.33;6.33;;;;;;;;4907006;28;46244;-77
2022/05/09 05:57:03;;;;;;;;;12.33;12.33;;;;;;;;4884213;28;46057;-82
2022/05/09 05:59:28;;;;;;;;;9.75;9.00;;;;;;;;4913934;28;45427;-82
2022/05/09 06:01:54;;;;;;;;;10.00;10.00;;;;;;;;4907132;28;45438;-78
2022/05/09 06:04:20;;;;;;;;;12.00;12.00;;;;;;;;4900142;28;45891;-77
2022/05/09 06:06:45;;;;;;;;;13.25;10.25;;;;;;;;4908638;28;46520;-76
2022/05/09 06:09:11;;;;;;;;;13.25;11.50;;;;;;;;4890017;28;45658;-84
2022/05/09 06:11:37;;;;;;;;;16.00;11.25;;;;;;;;4912685;28;45206;-82
2022/05/09 06:14:04;;;;;;;;;8.75;8.75;;;;;;;;4911013;28;45871;-82
2022/05/09 06:16:30;;;;;;;;;12.33;12.33;;;;;;;;4914517;28;45593;-80
2022/05/09 06:18:55;;;;;;;;;11.75;8.25;;;;;;;;4916118;28;45739;-79
2022/05/09 06:21:21;;;;;;;;;11.50;10.75;;;;;;;;4900770;28;45377;-82
2022/05/09 06:23:46;;;;;;;;;12.75;11.75;;;;;;;;4916119;28;45708;-76
2022/05/09 06:26:14;;;;;;;;;16.00;10.67;;;;;;;;4912007;28;46090;-77
2022/05/09 06:28:39;;;;;;;;;11.00;10.33;;;;;;;;4920070;28;45678;-80
2022/05/09 06:31:05;;;;;;;;;14.33;11.33;;;;;;;;4908413;28;45535;-80
2022/05/09 06:33:31;;;;;;;;;8.67;8.67;;;;;;;;4897595;28;45980;-81
2022/05/09 06:35:58;;;;;;;;;18.33;14.33;;;;;;;;4881113;29;48187;-82
2022/05/09 06:38:25;;;;;;;;;13.67;10.33;;;;;;;;4897217;29;45466;-84
2022/05/09 06:40:52;;;;;;;;;16.33;13.00;;;;;;;;4905276;28;45623;-74
2022/05/09 06:43:18;;;;;;;;;11.00;10.33;;;;;;;;4909291;28;45699;-74
2022/05/09 06:45:44;;;;;;;;;8.75;8.75;;;;;;;;4909667;28;45551;-76
2022/05/09 06:48:09;;;;;;;;;14.50;10.25;;;;;;;;4886761;28;45462;-80
2022/05/09 06:50:34;;;;;;;;;11.67;11.33;;;;;;;;4915806;28;45649;-80
2022/05/09 06:53:01;;;;;;;;;11.33;9.67;;;;;;;;4933216;28;45781;-78
2022/05/09 06:55:26;;;;;;;;;11.00;11.00;;;;;;;;4917360;28;45718;-74
2022/05/09 06:57:52;;;;;;;;;14.67;9.33;;;;;;;;4911294;28;45389;-75
2022/05/09 07:00:20;;;;;;;;;13.33;12.33;;;;;;;;4933143;28;45406;-75
2022/05/09 07:02:45;;;;;;;;;13.00;11.33;;;;;;;;4937593;28;45888;-78
2022/05/09 07:05:12;;;;;;;;;9.00;9.00;;;;;;;;4927590;28;45487;-80
2022/05/09 07:07:37;;;;;;;;;10.00;10.00;;;;;;;;4924450;28;45823;-80
2022/05/09 07:10:03;;;;;;;;;9.33;9.00;;;;;;;;4914784;28;45455;-74
2022/05/09 07:12:28;;;;;;;;;11.33;8.00;;;;;;;;4909801;28;45904;-79
2022/05/09 07:14:54;;;;;;;;;12.67;11.33;;;;;;;;4922589;28;45446;-73
2022/05/09 07:17:19;;;;;;;;;9.33;7.67;;;;;;;;4915332;28;45572;-74
2022/05/09 07:19:45;;;;;;;;;10.33;6.00;;;;;;;;4929766;28;45465;-74
2022/05/09 07:22:10;;;;;;;;;8.00;6.67;;;;;;;;4932393;28;45486;-74
2022/05/09 07:24:36;;;;;;;;;10.33;8.33;;;;;;;;4917046;28;45355;-75
2022/05/09 07:27:01;;;;;;;;;12.33;10.33;;;;;;;;4929515;28;46093;-79
2022/05/09 07:29:26;;;;;;;;;14.00;11.67;;;;;;;;4928761;28;45398;-80
2022/05/09 07:31:51;;;;;;;;;8.33;6.00;;;;;;;;4921487;28;45926;-74
2022/05/09 07:34:17;;;;;;;;;22.67;14.33;;;;;;;;4930302;28;45646;-73
2022/05/09 07:36:42;;;;;;;;;16.00;11.67;;;;;;;;4917137;28;45740;-75
2022/05/09 07:39:08;;;;;;;;;12.33;9.67;;;;;;;;4930600;28;46108;-74
2022/05/09 07:41:33;;;;;;;;;12.67;8.33;;;;;;;;4913230;28;47124;-79
2022/05/09 07:43:59;;;;;;;;;8.67;7.67;;;;;;;;4931425;28;47818;-78
2022/05/09 07:46:24;;;;;;;;;12.33;10.67;;;;;;;;4915082;28;45507;-78
2022/05/09 07:48:50;;;;;;;;;11.33;10.00;;;;;;;;4929182;28;45419;-80
2022/05/09 07:51:16;;;;;;;;;8.67;7.00;;;;;;;;4933884;28;45367;-74
2022/05/09 07:53:41;;;;;;;;;12.75;8.50;;;;;;;;4925606;28;45971;-73
2022/05/09 07:56:07;;;;;;;;;11.00;9.33;;;;;;;;4919785;28;45500;-73
2022/05/09 07:58:33;;;;;;;;;8.67;6.67;;;;;;;;4937674;28;45762;-73
2022/05/09 08:00:59;;;;;;;;;11.00;8.33;;;;;;;;4933780;28;45520;-73
2022/05/09 08:03:25;;;;;;;;;10.00;8.33;;;;;;;;4928951;28;46449;-74
2022/05/09 08:05:51;;;;;;;;;7.00;6.00;;;;;;;;4943997;28;45407;-74
2022/05/09 08:08:16;;;;;;;;;12.00;10.67;;;;;;;;4953841;28;45952;-73
2022/05/09 08:10:42;;;;;;;;;8.67;8.67;;;;;;;;4939491;28;45809;-75
2022/05/09 08:13:08;;;;;;;;;9.00;7.67;;;;;;;;4916515;28;46678;-74
2022/05/09 08:15:34;;;;;;;;;10.00;7.67;;;;;;;;4918999;28;45392;-74
2022/05/09 08:18:01;;;;;;;;;8.67;7.00;;;;;;;;4924490;28;45882;-74
2022/05/09 08:20:26;;;;;;;;;12.00;10.33;;;;;;;;4931030;28;45634;-75
2022/05/09 08:22:58;;;;;;;;;9.33;8.00;;;;;;;;4933380;28;45666;-74
2022/05/09 08:25:24;;;;;;;;;9.67;8.67;;;;;;;;4910115;28;46156;-79
2022/05/09 08:27:49;;;;;;;;;9.67;8.67;;;;;;;;4915674;28;45645;-79
2022/05/09 08:30:14;;;;;;;;;12.00;9.00;;;;;;;;4914508;28;45701;-79
2022/05/09 08:32:40;;;;;;;;;10.00;8.67;;;;;;;;4923652;28;47773;-81
2022/05/09 08:35:08;;;;;;;;;7.67;7.33;;;;;;;;4915760;28;46016;-80
2022/05/09 08:37:33;;;;;;;;;7.67;6.33;;;;;;;;4954093;28;45410;-83
2022/05/09 08:39:58;;;;;;;;;7.00;6.00;;;;;;;;4943735;28;45460;-80
2022/05/09 08:42:59;;;;;;;;;9.00;9.00;;;;;;;;4932189;28;45764;-78
2022/05/09 08:45:31;;;;;;;;;11.00;6.33;;;;;;;;4861767;29;45481;-80
2022/05/09 08:47:57;;;;;;;;;8.33;7.33;;;;;;;;4899029;28;45809;-80
2022/05/09 08:50:29;;;;;;;;;6.00;5.00;;;;;;;;4933680;28;45435;-75
2022/05/09 08:52:59;;;;;;;;;7.00;7.00;;;;;;;;4918303;28;45504;-74
2022/05/09 08:55:35;;;;;;;;;13.00;10.67;;;;;;;;4912745;28;45360;-74
2022/05/09 08:58:09;;;;;;;;;8.00;8.00;;;;;;;;4928317;28;45831;-79
2022/05/09 09:00:37;;;;;;;;;7.33;6.67;;;;;;;;4940813;28;45469;-74
2022/05/09 09:03:11;;;;;;;;;4.00;4.00;;;;;;;;4937299;28;46244;-72
2022/05/09 09:05:37;;;;;;;;;9.00;8.00;;;;;;;;4933862;28;45793;-76
2022/05/09 09:08:05;;;;;;;;;7.67;6.67;;;;;;;;4900269;28;46150;-80
2022/05/09 09:10:31;;;;;;;;;12.00;10.00;;;;;;;;4916893;28;45892;-79
2022/05/09 09:13:19;;;;;;;;;6.00;6.00;;;;;;;;4919650;28;46299;-78
2022/05/09 09:15:54;;;;;;;;;6.00;5.33;;;;;;;;4910457;28;45874;-78
2022/05/09 09:18:19;;;;;;;;;11.33;9.67;;;;;;;;4925146;28;45581;-80
2022/05/09 09:20:56;;;;;;;;;6.33;5.00;;;;;;;;4934261;28;45433;-78
2022/05/09 09:23:30;;;;;;;;;10.00;7.33;;;;;;;;4941878;28;45786;-73
2022/05/09 09:25:56;;;;;;;;;8.67;8.67;;;;;;;;4935946;28;45731;-74
2022/05/09 09:28:34;;;;;;;;;6.67;6.00;;;;;;;;4926280;28;45975;-74
2022/05/09 09:31:01;;;;;;;;;12.00;9.67;;;;;;;;4917647;28;45850;-80
2022/05/09 09:33:26;;;;;;;;;12.33;8.33;;;;;;;;4902206;28;47140;-79
2022/05/09 09:36:02;;;;;;;;;9.00;8.67;;;;;;;;4916577;28;45417;-78
2022/05/09 09:38:27;;;;;;;;;9.67;7.33;;;;;;;;4918346;28;45675;-79
2022/05/09 09:40:52;;;;;;;;;5.33;5.33;;;;;;;;4918254;28;45578;-80
2022/05/09 09:43:18;;;;;;;;;11.67;11.00;;;;;;;;4918531;28;45343;-81
2022/05/09 09:45:47;;;;;;;;;11.00;10.33;;;;;;;;4917524;28;45436;-80
2022/05/09 09:48:19;;;;;;;;;10.00;9.00;;;;;;;;4918491;28;45913;-80
2022/05/09 09:51:04;;;;;;;;;11.00;9.00;;;;;;;;4917278;28;45849;-79
2022/05/09 09:53:34;;;;;;;;;11.67;10.67;;;;;;;;4936272;28;45784;-74
2022/05/09 09:56:08;;;;;;;;;9.00;7.00;;;;;;;;4917900;28;45936;-73
2022/05/09 09:58:34;;;;;;;;;11.33;9.00;;;;;;;;4916050;28;45889;-80
2022/05/09 10:01:07;;;;;;;;;10.00;9.00;;;;;;;;4929544;28;45485;-79
2022/05/09 10:03:33;;;;;;;;;10.33;10.00;;;;;;;;4949626;28;47353;-80
2022/05/09 10:05:59;;;;;;;;;6.33;5.33;;;;;;;;4938341;28;45591;-80
2022/05/09 10:08:33;;;;;;;;;8.33;7.33;;;;;;;;4923940;28;45453;-84
2022/05/09 10:11:13;;;;;;;;;9.67;8.00;;;;;;;;4926613;28;45437;-80
2022/05/09 10:13:39;;;;;;;;;5.00;5.00;;;;;;;;4926563;28;46650;-80
2022/05/09 10:16:11;;;;;;;;;7.67;6.67;;;;;;;;4927162;28;45971;-80
2022/05/09 10:18:36;;;;;;;;;4.33;4.33;;;;;;;;4910649;28;45584;-80
2022/05/09 10:21:12;;;;;;;;;12.00;7.33;;;;;;;;4919596;28;45427;-79
2022/05/09 10:26:31;;;;;;;;;7.00;7.00;;;;;;;;4916888;28;45526;-76
2022/05/09 10:28:59;;;;;;;;;5.67;4.00;;;;;;;;4926548;28;45489;-81
2022/05/09 10:31:28;;;;;;;;;9.67;6.33;;;;;;;;4921411;28;45524;-80
2022/05/09 10:33:58;;;;;;;;;10.00;8.33;;;;;;;;4930136;28;46132;-79
2022/05/09 10:36:27;;;;;;;;;8.67;8.00;;;;;;;;4928590;28;46022;-76
2022/05/09 10:38:59;;;;;;;;;7.00;6.67;;;;;;;;4908371;28;46138;-76
2022/05/09 10:41:24;;;;;;;;;9.00;9.00;;;;;;;;4925891;28;45873;-76
2022/05/09 10:43:55;;;;;;;;;5.33;5.33;;;;;;;;4910762;28;45572;-81
2022/05/09 10:46:24;;;;;;;;;7.00;7.00;;;;;;;;4913018;28;45512;-81
2022/05/09 10:48:59;;;;;;;;;6.67;6.67;;;;;;;;4928551;28;45628;-81
2022/05/09 10:51:43;;;;;;;;;5.33;5.33;;;;;;;;4918548;28;46950;-79
2022/05/09 10:54:12;;;;;;;;;7.33;7.33;;;;;;;;4927384;28;45702;-77
2022/05/09 10:56:45;;;;;;;;;3.33;3.33;;;;;;;;4909920;28;45849;-75
2022/05/09 10:59:12;;;;;;;;;6.67;6.67;;;;;;;;4903434;28;45880;-75
2022/05/09 11:01:50;;;;;;;;;5.00;5.00;;;;;;;;4901149;28;47084;-73
2022/05/09 11:04:16;;;;;;;;;10.00;7.67;;;;;;;;4923172;28;45867;-81
2022/05/09 11:06:41;;;;;;;;;7.33;7.33;;;;;;;;4920674;28;45399;-80
2022/05/09 11:09:17;;;;;;;;;7.67;7.67;;;;;;;;4925583;28;45750;-80
2022/05/09 11:11:43;;;;;;;;;8.00;7.00;;;;;;;;4942387;28;45460;-78
2022/05/09 11:14:08;;;;;;;;;10.67;9.00;;;;;;;;4932291;28;45397;-74
2022/05/09 11:16:36;;;;;;;;;9.00;6.33;;;;;;;;4910082;28;45681;-74
2022/05/09 11:19:01;;;;;;;;;9.33;8.33;;;;;;;;4924166;28;45866;-74
2022/05/09 11:21:32;;;;;;;;;11.00;10.33;;;;;;;;4925334;28;45400;-75
2022/05/09 11:24:16;;;;;;;;;10.67;10.67;;;;;;;;4922567;28;46683;-82
2022/05/09 11:26:47;;;;;;;;;11.00;11.00;;;;;;;;4930490;28;45432;-80
2022/05/09 11:29:21;;;;;;;;;8.33;6.00;;;;;;;;4927187;28;45793;-75
2022/05/09 11:32:01;;;;;;;;;10.67;8.67;;;;;;;;4931387;28;45472;-75
2022/05/09 11:34:45;;;;;;;;;8.00;8.00;;;;;;;;4932894;28;46310;-80
2022/05/09 11:37:29;;;;;;;;;8.67;8.67;;;;;;;;4933585;28;45673;-79
2022/05/09 11:39:54;;;;;;;;;10.67;10.67;;;;;;;;4915044;28;45637;-80
2022/05/09 11:45:16;;;;;;;;;9.00;8.33;;;;;;;;4914280;28;45576;-75
2022/05/09 11:48:01;;;;;;;;;13.00;13.00;;;;;;;;4912594;28;45548;-75
2022/05/09 11:50:32;;;;;;;;;14.00;13.00;;;;;;;;4921496;28;45799;-80
2022/05/09 11:52:59;;;;;;;;;11.00;10.33;;;;;;;;4931787;28;46767;-74
2022/05/09 11:55:25;;;;;;;;;13.00;12.00;;;;;;;;4916104;28;45462;-74
2022/05/09 11:57:59;;;;;;;;;10.00;7.00;;;;;;;;4910449;28;45658;-75
2022/05/09 12:00:47;;;;;;;;;9.00;9.00;;;;;;;;4933464;28;45487;-80
2022/05/09 12:03:16;;;;;;;;;12.00;11.33;;;;;;;;4898631;28;46964;-79
2022/05/09 12:05:43;;;;;;;;;14.67;12.33;;;;;;;;4919155;28;45824;-75
2022/05/09 12:08:09;;;;;;;;;8.67;8.67;;;;;;;;4924519;28;45596;-79
2022/05/09 12:10:38;;;;;;;;;13.00;11.67;;;;;;;;4929122;28;45434;-79
2022/05/09 12:13:04;;;;;;;;;9.00;8.00;;;;;;;;4923348;28;46142;-73
2022/05/09 12:15:36;;;;;;;;;12.33;12.33;;;;;;;;4940991;28;45735;-72
2022/05/09 12:18:07;;;;;;;;;10.00;10.00;;;;;;;;4922628;28;45327;-79
2022/05/09 12:20:38;;;;;;;;;10.33;10.33;;;;;;;;4897756;28;45889;-78
2022/05/09 12:23:09;;;;;;;;;9.67;9.67;;;;;;;;4914340;28;45773;-79
2022/05/09 12:25:43;;;;;;;;;12.33;12.33;;;;;;;;4914563;28;45482;-80
2022/05/09 12:28:15;;;;;;;;;14.33;14.33;;;;;;;;4925906;28;45810;-77
2022/05/09 12:30:43;;;;;;;;;12.67;12.67;;;;;;;;4943414;28;45654;-75
2022/05/09 12:33:28;;;;;;;;;13.00;13.00;;;;;;;;4940876;28;46125;-75
2022/05/09 12:35:55;;;;;;;;;16.33;11.67;;;;;;;;4916603;28;45729;-73
2022/05/09 12:38:23;;;;;;;;;10.67;10.67;;;;;;;;4916279;28;46174;-78
2022/05/09 12:40:56;;;;;;;;;14.67;14.00;;;;;;;;4930708;28;45403;-79
2022/05/09 12:43:21;;;;;;;;;12.33;12.33;;;;;;;;4897904;28;47010;-80
2022/05/09 12:45:47;;;;;;;;;13.67;11.67;;;;;;;;4917111;28;45738;-74
2022/05/09 12:48:12;;;;;;;;;11.33;11.33;;;;;;;;4897992;28;45737;-75
2022/05/09 12:50:43;;;;;;;;;13.00;10.00;;;;;;;;4920638;28;45708;-73
2022/05/09 12:53:09;;;;;;;;;15.33;12.33;;;;;;;;4936828;28;45533;-73
2022/05/09 12:55:52;;;;;;;;;13.00;12.00;;;;;;;;4933223;28;45474;-75
2022/05/09 12:58:22;;;;;;;;;14.00;14.00;;;;;;;;4929361;28;45419;-79
2022/05/09 13:00:48;;;;;;;;;14.33;10.00;;;;;;;;4911358;28;45676;-74
2022/05/09 13:03:14;;;;;;;;;17.00;14.00;;;;;;;;4933644;28;45791;-74
2022/05/09 13:05:41;;;;;;;;;14.67;14.67;;;;;;;;4927446;28;46064;-73
2022/05/09 13:08:07;;;;;;;;;13.00;11.67;;;;;;;;4920428;28;45474;-73
2022/05/09 13:10:42;;;;;;;;;10.33;10.00;;;;;;;;4918359;28;46050;-79
2022/05/09 13:13:08;;;;;;;;;10.33;10.33;;;;;;;;4920486;28;45835;-79
2022/05/09 13:15:34;;;;;;;;;10.67;10.67;;;;;;;;4940215;28;47149;-79
2022/05/09 13:18:01;;;;;;;;;11.00;10.00;;;;;;;;4934950;28;45737;-74
2022/05/09 13:20:28;;;;;;;;;10.33;10.33;;;;;;;;4933478;28;45439;-75
2022/05/09 13:22:57;;;;;;;;;13.00;10.33;;;;;;;;4931516;28;45502;-81
2022/05/09 13:25:34;;;;;;;;;12.33;11.33;;;;;;;;4915028;28;45458;-73
2022/05/09 13:28:07;;;;;;;;;17.33;15.67;;;;;;;;4930131;28;45683;-80
2022/05/09 13:30:40;;;;;;;;;19.00;15.33;;;;;;;;4909003;28;45481;-79
2022/05/09 13:33:06;;;;;;;;;13.33;13.00;;;;;;;;4942610;28;45854;-79
2022/05/09 13:35:35;;;;;;;;;16.67;14.67;;;;;;;;4938881;28;45524;-73
2022/05/09 13:38:26;;;;;;;;;14.33;14.33;;;;;;;;4937182;28;45656;-74
2022/05/09 13:40:54;;;;;;;;;15.67;13.00;;;;;;;;4934185;28;45426;-74
2022/05/09 13:43:24;;;;;;;;;14.00;13.33;;;;;;;;4924334;28;47356;-74
2022/05/09 13:46:11;;;;;;;;;13.00;12.33;;;;;;;;4924536;28;45561;-80
2022/05/09 13:48:37;;;;;;;;;16.00;13.33;;;;;;;;4911228;28;45530;-79
2022/05/09 13:51:02;;;;;;;;;12.00;12.00;;;;;;;;4934289;28;45666;-74
2022/05/09 13:53:30;;;;;;;;;14.67;14.33;;;;;;;;4939755;28;45747;-77
2022/05/09 13:55:57;;;;;;;;;14.33;13.00;;;;;;;;4935442;28;45810;-78
2022/05/09 13:58:24;;;;;;;;;17.67;15.33;;;;;;;;4932689;28;45638;-78
2022/05/09 14:00:51;;;;;;;;;16.67;16.00;;;;;;;;4933677;28;45637;-77
2022/05/09 14:03:29;;;;;;;;;15.33;15.33;;;;;;;;4935517;28;45700;-75
2022/05/09 14:05:56;;;;;;;;;16.67;14.67;;;;;;;;4906336;28;48057;-76
2022/05/09 14:08:22;;;;;;;;;12.33;12.33;;;;;;;;4915610;28;45730;-77
2022/05/09 14:10:49;;;;;;;;;15.00;13.00;;;;;;;;4916040;28;45363;-76
2022/05/09 14:13:34;;;;;;;;;16.33;14.33;;;;;;;;4898137;28;47035;-75
2022/05/09 14:16:16;;;;;;;;;11.00;11.00;;;;;;;;4905951;28;45770;-81
2022/05/09 14:18:43;;;;;;;;;17.67;14.33;;;;;;;;4937833;28;45326;-81
2022/05/09 14:21:14;;;;;;;;;13.67;13.67;;;;;;;;4932882;28;45408;-80
2022/05/09 14:23:45;;;;;;;;;14.67;12.67;;;;;;;;4908949;28;45772;-76
2022/05/09 14:31:44;;;;;;;;;11.67;11.67;;;;;;;;4937929;28;45837;-73
2022/05/09 14:34:35;;;;;;;;;11.33;11.33;;;;;;;;4938217;28;45869;-79
2022/05/09 14:37:16;;;;;;;;;12.33;11.67;;;;;;;;4919215;28;45600;-76
2022/05/09 14:39:44;;;;;;;;;14.00;14.00;;;;;;;;4904857;28;45292;-79
2022/05/09 14:42:09;;;;;;;;;9.67;8.67;;;;;;;;4909649;28;45376;-79
2022/05/09 14:44:34;;;;;;;;;11.33;11.33;;;;;;;;4917516;28;45388;-77
2022/05/09 14:47:00;;;;;;;;;14.33;11.00;;;;;;;;4926039;28;46083;-83
2022/05/09 14:49:26;;;;;;;;;11.00;11.00;;;;;;;;4932735;28;45523;-82
2022/05/09 14:52:00;;;;;;;;;8.00;8.00;;;;;;;;4932389;28;45392;-83
2022/05/09 14:54:28;;;;;;;;;14.00;13.00;;;;;;;;4920443;28;45372;-82
2022/05/09 14:59:46;;;;;;;;;10.67;10.67;;;;;;;;4923475;28;46057;-83
2022/05/09 15:02:19;;;;;;;;;11.00;11.00;;;;;;;;4927960;28;45839;-80